Time;durP1;ratioP1;P1;durP2;ratioP2;P2;SDS_P1;SDS_P2;PMS_P1;PMS_P2;Temp;Humidity;BMP_temperature;BMP_pressure;BME280_temperature;BME280_humidity;BME280_pressure;Samples;Min_cycle;Max_cycle;Signal;HPM_P1;HPM_P2
2023/04/11 00:01:57;;;;;;;21.17;11.90;;;;;;;;;;5028451;28;20438;-64
2023/04/11 00:04:24;;;;;;;26.13;14.37;;;;;;;;;;5028557;28;20441;-64
2023/04/11 00:06:51;;;;;;;26.30;14.37;;;;;;;;;;5027884;28;20572;-64
2023/04/11 00:09:17;;;;;;;21.60;12.20;;;;;;;;;;5028521;28;20500;-64
2023/04/11 00:11:44;;;;;;;21.80;13.53;;;;;;;;;;5028428;28;20422;-64
2023/04/11 00:14:11;;;;;;;24.93;15.00;;;;;;;;;;5027833;28;20433;-64
2023/04/11 00:16:38;;;;;;;26.33;14.30;;;;;;;;;;5028123;28;20426;-64
2023/04/11 00:19:08;;;;;;;21.27;12.83;;;;;;;;;;5028242;28;20476;-64
2023/04/11 00:21:38;;;;;;;22.07;12.70;;;;;;;;;;5027999;28;20434;-64
2023/04/11 00:24:08;;;;;;;21.23;12.17;;;;;;;;;;5028550;28;20429;-64
2023/04/11 00:26:34;;;;;;;22.23;12.10;;;;;;;;;;5028200;28;20814;-64
2023/04/11 00:29:01;;;;;;;21.67;12.13;;;;;;;;;;5028100;28;20434;-64
2023/04/11 00:31:28;;;;;;;20.80;12.87;;;;;;;;;;5027921;28;20778;-64
2023/04/11 00:33:55;;;;;;;20.63;12.33;;;;;;;;;;5027905;28;20434;-64
2023/04/11 00:36:21;;;;;;;22.73;12.23;;;;;;;;;;5027615;28;20440;-64
2023/04/11 00:38:49;;;;;;;19.23;11.40;;;;;;;;;;5028072;28;20481;-64
2023/04/11 00:41:15;;;;;;;21.40;12.20;;;;;;;;;;5027763;28;21020;-64
2023/04/11 00:43:42;;;;;;;18.33;11.13;;;;;;;;;;5027730;28;20488;-64
2023/04/11 00:46:09;;;;;;;18.90;12.03;;;;;;;;;;5014047;28;20441;-64
2023/04/11 00:48:35;;;;;;;22.53;12.10;;;;;;;;;;5014370;28;20418;-64
2023/04/11 00:51:02;;;;;;;22.30;14.13;;;;;;;;;;5014604;28;20430;-64
2023/04/11 00:53:31;;;;;;;20.03;13.50;;;;;;;;;;5014610;28;20422;-64
2023/04/11 00:55:58;;;;;;;21.30;12.90;;;;;;;;;;5013924;28;20456;-64
2023/04/11 00:58:25;;;;;;;21.73;13.20;;;;;;;;;;5013881;28;20478;-64
2023/04/11 01:00:52;;;;;;;19.60;11.77;;;;;;;;;;5031586;28;20941;-64
2023/04/11 01:03:20;;;;;;;21.07;11.63;;;;;;;;;;5014401;28;20434;-64
2023/04/11 01:05:47;;;;;;;19.33;11.97;;;;;;;;;;5031943;28;20513;-64
2023/04/11 01:08:14;;;;;;;20.20;12.17;;;;;;;;;;5031865;28;20452;-64
2023/04/11 01:10:40;;;;;;;19.30;11.97;;;;;;;;;;5031881;28;20426;-63
2023/04/11 01:13:07;;;;;;;20.87;11.83;;;;;;;;;;5031679;28;20836;-68
2023/04/11 01:15:34;;;;;;;18.67;11.13;;;;;;;;;;5031278;28;21136;-68
2023/04/11 01:18:00;;;;;;;17.67;11.43;;;;;;;;;;5031556;28;20434;-68
2023/04/11 01:20:28;;;;;;;21.53;10.87;;;;;;;;;;5030939;28;20947;-68
2023/04/11 01:22:57;;;;;;;18.23;10.87;;;;;;;;;;5031371;28;20426;-68
2023/04/11 01:25:24;;;;;;;17.23;11.03;;;;;;;;;;5031451;28;20426;-68
2023/04/11 01:27:51;;;;;;;17.03;10.50;;;;;;;;;;4997488;28;20493;-68
2023/04/11 01:30:18;;;;;;;19.93;11.07;;;;;;;;;;5013150;28;20465;-68
2023/04/11 01:32:46;;;;;;;17.57;10.37;;;;;;;;;;5013547;28;20861;-68
2023/04/11 01:35:12;;;;;;;16.47;10.47;;;;;;;;;;5031169;28;20480;-68
2023/04/11 01:37:40;;;;;;;16.20;9.60;;;;;;;;;;5013584;28;20436;-68
2023/04/11 01:40:08;;;;;;;18.27;10.17;;;;;;;;;;5030031;28;20485;-68
2023/04/11 02:18:45;;;;;;;19.83;11.30;;;;;;;;;;5029221;28;20602;-68
2023/04/11 02:21:14;;;;;;;18.37;11.70;;;;;;;;;;5018828;28;20533;-69
2023/04/11 02:23:44;;;;;;;19.03;11.63;;;;;;;;;;5041707;28;20959;-70
2023/04/11 02:26:11;;;;;;;17.17;10.93;;;;;;;;;;5030677;28;20453;-68
2023/04/11 02:28:37;;;;;;;24.70;13.50;;;;;;;;;;5010009;28;20438;-68
2023/04/11 02:31:05;;;;;;;22.10;12.27;;;;;;;;;;5008831;28;20468;-69
2023/04/11 02:33:32;;;;;;;20.67;11.97;;;;;;;;;;5009110;28;21040;-69
2023/04/11 02:35:59;;;;;;;18.17;11.10;;;;;;;;;;5027957;28;20969;-68
2023/04/11 02:38:26;;;;;;;15.90;9.80;;;;;;;;;;5029982;28;20474;-68
2023/04/11 02:40:53;;;;;;;18.30;10.33;;;;;;;;;;5012069;28;20485;-68
2023/04/11 02:43:19;;;;;;;18.13;10.30;;;;;;;;;;5029809;28;20442;-68
2023/04/11 02:45:46;;;;;;;17.90;11.00;;;;;;;;;;5030046;28;20431;-68
2023/04/11 02:48:13;;;;;;;17.43;10.47;;;;;;;;;;5012062;28;20450;-68
2023/04/11 02:50:43;;;;;;;19.30;11.07;;;;;;;;;;5028992;28;20440;-69
2023/04/11 02:53:10;;;;;;;20.10;11.20;;;;;;;;;;5011897;28;20805;-68
2023/04/11 02:55:43;;;;;;;15.83;9.63;;;;;;;;;;5011993;28;20532;-68
2023/04/11 02:58:16;;;;;;;18.10;10.73;;;;;;;;;;4995661;28;20553;-68
2023/04/11 03:00:44;;;;;;;18.57;9.87;;;;;;;;;;5012030;28;20449;-68
2023/04/11 03:03:11;;;;;;;18.27;10.30;;;;;;;;;;5011898;28;20446;-68
2023/04/11 03:05:42;;;;;;;20.47;10.50;;;;;;;;;;5012025;28;20538;-68
2023/04/11 03:08:09;;;;;;;17.00;9.47;;;;;;;;;;5011618;28;20450;-69
2023/04/11 03:10:40;;;;;;;17.03;9.23;;;;;;;;;;5011811;28;20460;-68
2023/04/11 03:13:10;;;;;;;16.43;10.20;;;;;;;;;;5032129;28;20429;-71
2023/04/11 03:15:37;;;;;;;15.70;9.70;;;;;;;;;;5024002;28;20481;-73
2023/04/11 03:18:07;;;;;;;17.70;10.27;;;;;;;;;;5028451;28;20491;-70
2023/04/11 03:20:37;;;;;;;17.23;10.23;;;;;;;;;;5010107;28;20545;-70
2023/04/11 03:23:06;;;;;;;18.10;11.03;;;;;;;;;;5008996;28;20484;-69
2023/04/11 03:25:33;;;;;;;18.30;10.67;;;;;;;;;;5009841;28;20829;-69
2023/04/11 03:28:02;;;;;;;18.30;10.50;;;;;;;;;;5009745;28;20505;-71
2023/04/11 03:30:30;;;;;;;20.20;12.00;;;;;;;;;;5009362;28;20446;-69
2023/04/11 03:32:59;;;;;;;23.03;13.47;;;;;;;;;;4994592;28;20522;-71
2023/04/11 03:35:28;;;;;;;20.90;13.03;;;;;;;;;;5009745;28;20453;-71
2023/04/11 03:37:56;;;;;;;23.90;14.07;;;;;;;;;;5027529;28;20949;-70
2023/04/11 03:40:23;;;;;;;24.87;13.67;;;;;;;;;;5009762;28;20492;-70
2023/04/11 03:43:02;;;;;;;26.80;14.40;;;;;;;;;;5009930;28;20472;-77
2023/04/11 03:45:33;;;;;;;22.67;13.30;;;;;;;;;;5010511;28;20445;-71
2023/04/11 03:48:02;;;;;;;24.23;13.77;;;;;;;;;;5009861;28;20517;-69
2023/04/11 03:50:43;;;;;;;23.17;14.27;;;;;;;;;;5010026;28;20826;-69
2023/04/11 03:53:11;;;;;;;27.63;18.10;;;;;;;;;;5009309;28;20530;-69
2023/04/11 03:55:42;;;;;;;26.57;15.47;;;;;;;;;;5027432;28;20794;-72
2023/04/11 03:58:12;;;;;;;20.27;12.23;;;;;;;;;;5009620;28;20534;-71
2023/04/11 04:00:41;;;;;;;22.17;13.67;;;;;;;;;;5024685;28;20853;-70
2023/04/11 04:03:12;;;;;;;20.30;13.73;;;;;;;;;;5027571;28;20430;-72
2023/04/11 04:05:40;;;;;;;19.80;12.23;;;;;;;;;;5023363;28;20496;-69
2023/04/11 04:08:09;;;;;;;23.70;14.93;;;;;;;;;;5009055;28;20478;-70
2023/04/11 04:10:46;;;;;;;23.33;14.37;;;;;;;;;;5010482;28;20459;-72
2023/04/11 04:13:13;;;;;;;23.17;14.30;;;;;;;;;;5008960;28;20437;-71
2023/04/11 04:15:48;;;;;;;21.70;13.10;;;;;;;;;;4993604;28;20442;-70
2023/04/11 04:18:15;;;;;;;20.87;11.00;;;;;;;;;;4992687;28;20548;-67
2023/04/11 04:20:45;;;;;;;21.70;12.60;;;;;;;;;;5009194;28;20490;-70
2023/04/11 04:23:16;;;;;;;22.03;12.60;;;;;;;;;;4983413;28;20486;-71
2023/04/11 04:25:52;;;;;;;23.70;13.53;;;;;;;;;;4994490;28;20437;-70
2023/04/11 04:28:24;;;;;;;23.40;13.43;;;;;;;;;;5008728;28;20466;-70
2023/04/11 04:30:56;;;;;;;21.47;12.80;;;;;;;;;;5025752;28;20500;-71
2023/04/11 04:33:31;;;;;;;20.00;12.83;;;;;;;;;;5009011;28;20495;-72
2023/04/11 04:36:04;;;;;;;25.27;14.67;;;;;;;;;;4993352;28;20459;-70
2023/04/11 04:38:33;;;;;;;23.70;15.00;;;;;;;;;;5008786;28;20442;-71
2023/04/11 04:41:04;;;;;;;21.17;12.83;;;;;;;;;;5008739;28;20465;-70
2023/04/11 04:43:34;;;;;;;18.03;12.77;;;;;;;;;;5008967;28;20442;-70
2023/04/11 04:46:19;;;;;;;18.20;11.20;;;;;;;;;;5026824;28;20450;-70
2023/04/11 04:48:52;;;;;;;18.93;10.70;;;;;;;;;;5009539;28;20539;-70
2023/04/11 04:51:19;;;;;;;17.13;10.50;;;;;;;;;;4992706;28;20294;-70
2023/04/11 04:53:46;;;;;;;18.80;10.73;;;;;;;;;;5009488;28;20206;-72
2023/04/11 04:56:14;;;;;;;17.57;10.40;;;;;;;;;;5008912;28;20261;-71
2023/04/11 04:58:46;;;;;;;21.27;10.93;;;;;;;;;;5008529;28;20217;-70
2023/04/11 05:01:15;;;;;;;18.03;10.73;;;;;;;;;;5008236;28;20253;-70
2023/04/11 05:03:45;;;;;;;16.50;10.63;;;;;;;;;;4993113;28;20603;-72
2023/04/11 05:06:21;;;;;;;15.83;10.37;;;;;;;;;;5008491;28;20297;-69
2023/04/11 05:08:49;;;;;;;16.73;10.27;;;;;;;;;;5008841;28;20669;-70
2023/04/11 05:11:16;;;;;;;18.90;11.30;;;;;;;;;;5008571;28;20184;-70
2023/04/11 05:13:43;;;;;;;18.57;12.00;;;;;;;;;;5008443;28;20203;-70
2023/04/11 05:16:10;;;;;;;20.90;12.13;;;;;;;;;;5000094;28;20190;-70
2023/04/11 05:18:37;;;;;;;24.20;14.27;;;;;;;;;;5011453;28;20191;-69
2023/04/11 05:21:04;;;;;;;20.63;14.00;;;;;;;;;;5008757;28;20255;-69
2023/04/11 05:23:37;;;;;;;19.33;13.37;;;;;;;;;;5008560;28;20203;-69
2023/04/11 05:26:05;;;;;;;21.27;14.37;;;;;;;;;;4991029;28;20219;-68
2023/04/11 05:28:32;;;;;;;20.30;13.83;;;;;;;;;;5008359;28;20199;-67
2023/04/11 05:31:03;;;;;;;22.20;13.87;;;;;;;;;;5010399;28;20187;-68
2023/04/11 05:33:31;;;;;;;18.77;13.27;;;;;;;;;;5012253;28;20929;-67
2023/04/11 05:36:01;;;;;;;18.30;13.03;;;;;;;;;;5012568;28;20210;-68
2023/04/11 05:38:28;;;;;;;20.33;12.57;;;;;;;;;;5009587;28;20195;-68
2023/04/11 05:40:58;;;;;;;16.27;12.40;;;;;;;;;;5012857;28;20227;-67
2023/04/11 05:43:26;;;;;;;18.83;13.03;;;;;;;;;;5030819;28;20195;-67
2023/04/11 05:45:52;;;;;;;18.33;12.70;;;;;;;;;;5013399;28;20187;-67
2023/04/11 05:48:23;;;;;;;16.83;12.20;;;;;;;;;;5013774;28;20192;-68
2023/04/11 05:50:50;;;;;;;16.70;12.33;;;;;;;;;;5030694;28;20729;-67
2023/04/11 05:53:16;;;;;;;16.17;12.17;;;;;;;;;;5012805;28;20249;-68
2023/04/11 05:55:44;;;;;;;20.47;12.77;;;;;;;;;;5017894;28;20179;-68
2023/04/11 05:58:11;;;;;;;18.60;12.77;;;;;;;;;;5036431;28;20221;-74
2023/04/11 06:00:40;;;;;;;15.57;12.10;;;;;;;;;;5012032;28;20225;-75
2023/04/11 06:03:08;;;;;;;17.90;11.70;;;;;;;;;;5012432;28;20223;-72
2023/04/11 06:05:35;;;;;;;18.03;12.57;;;;;;;;;;5012386;28;20297;-69
2023/04/11 06:08:02;;;;;;;17.73;11.87;;;;;;;;;;4988653;28;20237;-70
2023/04/11 06:10:31;;;;;;;17.87;12.23;;;;;;;;;;4997980;28;20192;-73
2023/04/11 06:12:58;;;;;;;15.73;11.50;;;;;;;;;;5029632;28;20199;-69
2023/04/11 06:15:25;;;;;;;18.73;11.20;;;;;;;;;;5029251;28;20210;-68
2023/04/11 06:17:52;;;;;;;15.87;11.60;;;;;;;;;;5029501;28;20194;-68
2023/04/11 06:20:20;;;;;;;17.83;11.40;;;;;;;;;;5022868;28;20206;-75
2023/04/11 06:22:50;;;;;;;16.87;12.00;;;;;;;;;;5021249;28;20274;-69
2023/04/11 06:25:17;;;;;;;15.93;11.60;;;;;;;;;;5034341;28;20640;-70
2023/04/11 06:27:44;;;;;;;15.13;10.93;;;;;;;;;;5029370;28;20317;-70
2023/04/11 06:30:11;;;;;;;15.53;11.20;;;;;;;;;;5018660;28;20988;-70
2023/04/11 06:32:38;;;;;;;14.77;10.60;;;;;;;;;;5029230;28;20199;-75
2023/04/11 06:35:05;;;;;;;14.13;10.57;;;;;;;;;;5029326;28;20187;-70
2023/04/11 06:37:32;;;;;;;13.90;10.33;;;;;;;;;;5011171;28;20594;-69
2023/04/11 06:39:59;;;;;;;15.50;10.70;;;;;;;;;;5027898;28;20227;-75
2023/04/11 06:42:26;;;;;;;14.50;10.87;;;;;;;;;;5028556;28;20310;-70
2023/04/11 06:44:53;;;;;;;14.53;11.27;;;;;;;;;;5036575;28;20511;-70
2023/04/11 06:47:22;;;;;;;12.60;10.17;;;;;;;;;;5039863;28;20696;-77
2023/04/11 06:49:49;;;;;;;16.03;10.17;;;;;;;;;;5029106;28;20202;-69
2023/04/11 06:52:16;;;;;;;14.63;10.50;;;;;;;;;;5028342;28;20200;-70
2023/04/11 06:54:43;;;;;;;12.67;9.50;;;;;;;;;;5028622;28;20191;-72
2023/04/11 06:57:10;;;;;;;16.43;10.90;;;;;;;;;;5028869;28;20195;-70
2023/04/11 06:59:36;;;;;;;15.77;10.90;;;;;;;;;;5028015;28;20223;-70
2023/04/11 07:02:04;;;;;;;15.60;10.30;;;;;;;;;;5028583;28;20213;-74
2023/04/11 07:04:33;;;;;;;14.70;10.03;;;;;;;;;;5011045;28;20195;-73
2023/04/11 07:07:00;;;;;;;17.67;10.73;;;;;;;;;;5028213;28;20211;-73
2023/04/11 07:09:27;;;;;;;13.40;9.87;;;;;;;;;;5010947;28;20278;-74
2023/04/11 07:11:55;;;;;;;13.77;10.10;;;;;;;;;;5010146;28;20660;-70
2023/04/11 07:14:22;;;;;;;13.73;10.87;;;;;;;;;;5031087;28;20202;-73
2023/04/11 07:16:49;;;;;;;16.53;12.67;;;;;;;;;;5009885;28;20209;-73
2023/04/11 07:19:16;;;;;;;18.10;13.27;;;;;;;;;;5030557;28;20777;-72
2023/04/11 07:21:43;;;;;;;15.40;11.17;;;;;;;;;;5013991;28;20203;-76
2023/04/11 07:24:12;;;;;;;13.43;10.50;;;;;;;;;;5037964;28;20191;-71
2023/04/11 07:26:41;;;;;;;15.10;11.33;;;;;;;;;;5010191;28;20195;-71
2023/04/11 07:29:08;;;;;;;14.57;10.57;;;;;;;;;;5028326;28;20211;-69
2023/04/11 07:31:37;;;;;;;14.93;10.17;;;;;;;;;;5047718;28;20685;-69
2023/04/11 07:34:04;;;;;;;14.03;9.53;;;;;;;;;;5038026;28;20199;-66
2023/04/11 07:36:31;;;;;;;12.47;9.67;;;;;;;;;;5027580;28;20198;-69
2023/04/11 07:38:58;;;;;;;18.03;10.60;;;;;;;;;;5027802;28;20662;-69
2023/04/11 07:41:25;;;;;;;17.30;12.00;;;;;;;;;;5028021;28;20239;-69
2023/04/11 07:43:52;;;;;;;12.53;9.57;;;;;;;;;;5027363;28;20191;-69
2023/04/11 07:46:23;;;;;;;12.40;10.00;;;;;;;;;;5007991;28;20198;-68
2023/04/11 07:48:50;;;;;;;12.90;10.07;;;;;;;;;;5026053;28;20184;-68
2023/04/11 07:51:17;;;;;;;16.43;10.87;;;;;;;;;;5046756;28;20198;-69
2023/04/11 07:53:45;;;;;;;16.97;10.77;;;;;;;;;;5041058;28;20215;-69
2023/04/11 07:56:13;;;;;;;14.00;10.93;;;;;;;;;;5027307;28;20265;-69
2023/04/11 07:58:40;;;;;;;15.97;11.20;;;;;;;;;;5008275;28;20528;-69
2023/04/11 08:01:28;;;;;;;16.50;11.83;;;;;;;;;;5026387;28;20310;-69
2023/04/11 08:03:55;;;;;;;13.43;10.40;;;;;;;;;;5027309;28;20195;-69
2023/04/11 08:06:25;;;;;;;18.43;11.63;;;;;;;;;;5007818;28;21034;-68
2023/04/11 08:08:52;;;;;;;16.57;11.67;;;;;;;;;;5017299;28;20201;-72
2023/04/11 08:11:19;;;;;;;13.07;10.60;;;;;;;;;;5028617;28;20283;-72
2023/04/11 08:13:46;;;;;;;13.27;10.70;;;;;;;;;;5027147;28;21009;-70
2023/04/11 08:16:13;;;;;;;19.43;11.57;;;;;;;;;;5026474;28;20595;-69
2023/04/11 08:18:41;;;;;;;12.77;9.10;;;;;;;;;;5009893;28;20200;-69
2023/04/11 08:21:09;;;;;;;12.17;9.40;;;;;;;;;;5026963;28;20203;-69
2023/04/11 08:23:38;;;;;;;15.97;9.37;;;;;;;;;;5026911;28;20203;-69
2023/04/11 08:26:05;;;;;;;14.50;10.00;;;;;;;;;;5026606;28;20195;-68
2023/04/11 08:28:34;;;;;;;10.27;7.10;;;;;;;;;;4993246;28;20187;-67
2023/04/11 08:31:02;;;;;;;11.20;7.03;;;;;;;;;;5015184;28;20329;-68
2023/04/11 08:33:29;;;;;;;12.40;8.73;;;;;;;;;;5026776;28;20206;-68
2023/04/11 08:35:58;;;;;;;12.30;7.33;;;;;;;;;;5026797;28;20192;-70
2023/04/11 08:38:25;;;;;;;12.80;7.57;;;;;;;;;;5009562;28;21015;-68
2023/04/11 08:40:53;;;;;;;14.47;7.40;;;;;;;;;;5027858;28;20221;-67
2023/04/11 08:43:24;;;;;;;13.37;7.83;;;;;;;;;;5027179;28;20582;-69
2023/04/11 08:45:51;;;;;;;13.60;8.03;;;;;;;;;;5025510;28;20219;-69
2023/04/11 08:48:20;;;;;;;11.40;6.50;;;;;;;;;;5026791;28;20191;-72
2023/04/11 08:50:49;;;;;;;10.97;6.20;;;;;;;;;;5010308;28;20546;-67
2023/04/11 08:53:23;;;;;;;13.10;7.07;;;;;;;;;;5026826;28;20202;-68
2023/04/11 08:55:51;;;;;;;9.90;6.17;;;;;;;;;;4993133;28;20286;-68
2023/04/11 08:58:18;;;;;;;9.10;6.30;;;;;;;;;;5026497;28;20199;-69
2023/04/11 09:00:45;;;;;;;7.40;5.87;;;;;;;;;;5026435;28;20233;-68
2023/04/11 09:03:14;;;;;;;11.37;6.17;;;;;;;;;;5009617;28;20598;-69
2023/04/11 09:05:48;;;;;;;8.57;4.90;;;;;;;;;;5028565;28;20571;-68
2023/04/11 09:08:17;;;;;;;8.33;6.03;;;;;;;;;;5030596;28;20210;-68
2023/04/11 09:10:44;;;;;;;9.73;5.17;;;;;;;;;;5013176;28;20188;-68
2023/04/11 09:13:18;;;;;;;11.63;5.67;;;;;;;;;;5030718;28;20314;-69
2023/04/11 09:16:03;;;;;;;9.67;5.20;;;;;;;;;;5029983;28;20195;-69
2023/04/11 09:18:34;;;;;;;7.03;5.07;;;;;;;;;;5011854;28;20249;-68
2023/04/11 09:21:07;;;;;;;9.60;5.13;;;;;;;;;;5030463;28;20276;-69
2023/04/11 09:23:34;;;;;;;9.47;5.83;;;;;;;;;;5030453;28;20196;-69
2023/04/11 09:26:01;;;;;;;5.93;4.60;;;;;;;;;;5029708;28;20191;-68
2023/04/11 09:28:32;;;;;;;10.50;4.83;;;;;;;;;;5029964;28;20640;-70
2023/04/11 09:30:59;;;;;;;6.07;4.47;;;;;;;;;;5002370;28;20243;-69
2023/04/11 09:33:30;;;;;;;6.77;4.90;;;;;;;;;;5012878;28;20191;-70
2023/04/11 09:35:57;;;;;;;6.63;4.53;;;;;;;;;;5025987;28;21005;-69
2023/04/11 09:38:27;;;;;;;6.00;4.80;;;;;;;;;;5012624;28;20195;-70
2023/04/11 09:40:55;;;;;;;4.77;4.20;;;;;;;;;;5028445;28;20251;-70
2023/04/11 09:43:22;;;;;;;5.50;4.07;;;;;;;;;;4996078;28;20211;-70
2023/04/11 09:45:49;;;;;;;8.30;4.70;;;;;;;;;;5043138;28;20203;-72
2023/04/11 09:48:21;;;;;;;5.80;4.17;;;;;;;;;;5001950;28;20760;-73
2023/04/11 09:51:02;;;;;;;5.03;3.60;;;;;;;;;;5030134;28;20594;-70
2023/04/11 09:53:31;;;;;;;4.80;4.10;;;;;;;;;;5006517;28;20192;-69
2023/04/11 09:55:58;;;;;;;9.73;4.47;;;;;;;;;;5030024;28;20187;-72
2023/04/11 09:58:25;;;;;;;10.27;5.10;;;;;;;;;;5012324;28;20203;-70
2023/04/11 10:00:52;;;;;;;5.23;3.50;;;;;;;;;;5028913;28;20222;-70
2023/04/11 10:03:22;;;;;;;9.57;4.20;;;;;;;;;;5011790;28;20274;-70
2023/04/11 10:05:50;;;;;;;10.50;4.17;;;;;;;;;;5027469;28;20241;-68
2023/04/11 10:08:20;;;;;;;11.13;5.00;;;;;;;;;;5011714;28;20184;-71
2023/04/11 10:10:47;;;;;;;7.97;3.77;;;;;;;;;;5017279;28;20192;-74
2023/04/11 10:13:41;;;;;;;10.27;4.77;;;;;;;;;;5010356;28;20266;-69
2023/04/11 10:16:13;;;;;;;7.40;3.90;;;;;;;;;;5028105;28;20187;-73
2023/04/11 10:18:49;;;;;;;6.03;3.93;;;;;;;;;;5024462;28;20659;-73
2023/04/11 10:21:30;;;;;;;6.60;4.37;;;;;;;;;;5012238;28;20214;-76
2023/04/11 10:24:09;;;;;;;8.00;4.70;;;;;;;;;;5028789;28;20234;-71
2023/04/11 10:26:47;;;;;;;6.67;4.70;;;;;;;;;;5005968;28;20534;-72
2023/04/11 10:29:33;;;;;;;9.27;4.90;;;;;;;;;;5008737;28;20180;-71
2023/04/11 10:32:11;;;;;;;8.33;4.73;;;;;;;;;;5027341;28;20269;-70
2023/04/11 10:34:39;;;;;;;6.93;4.87;;;;;;;;;;5014580;28;20198;-69
2023/04/11 10:37:07;;;;;;;8.10;5.40;;;;;;;;;;5028961;28;20589;-72
2023/04/11 10:39:46;;;;;;;6.43;4.50;;;;;;;;;;5010573;28;20224;-71
2023/04/11 10:42:25;;;;;;;8.10;4.70;;;;;;;;;;5028858;28;20532;-70
2023/04/11 10:45:10;;;;;;;8.07;4.53;;;;;;;;;;5033331;28;20202;-69
2023/04/11 10:47:37;;;;;;;7.60;4.30;;;;;;;;;;5029251;28;20198;-71
2023/04/11 10:50:24;;;;;;;7.83;4.20;;;;;;;;;;5028809;28;20205;-72
2023/04/11 10:52:51;;;;;;;7.17;4.70;;;;;;;;;;5028347;28;20188;-72
2023/04/11 10:55:18;;;;;;;6.70;5.43;;;;;;;;;;5032377;28;20196;-70
2023/04/11 10:58:05;;;;;;;5.37;4.30;;;;;;;;;;5011276;28;20191;-69
2023/04/11 11:00:53;;;;;;;10.33;4.23;;;;;;;;;;5027989;28;20619;-71
2023/04/11 11:03:21;;;;;;;7.87;4.43;;;;;;;;;;5018877;28;20286;-71
2023/04/11 11:05:58;;;;;;;5.53;4.20;;;;;;;;;;5010075;28;20202;-71
2023/04/11 11:08:29;;;;;;;7.23;4.30;;;;;;;;;;5010669;28;20187;-71
2023/04/11 11:11:00;;;;;;;9.30;3.93;;;;;;;;;;5010437;28;20195;-72
2023/04/11 11:13:37;;;;;;;6.63;4.03;;;;;;;;;;5010552;28;20213;-70
2023/04/11 11:16:04;;;;;;;7.20;4.17;;;;;;;;;;4993057;28;20666;-70
2023/04/11 11:18:34;;;;;;;7.87;4.03;;;;;;;;;;5010785;28;20194;-71
2023/04/11 11:21:03;;;;;;;5.47;3.87;;;;;;;;;;5010781;28;20740;-70
2023/04/11 11:23:35;;;;;;;6.70;3.60;;;;;;;;;;5011081;28;20796;-69
2023/04/11 11:26:02;;;;;;;3.93;3.43;;;;;;;;;;5024836;28;20202;-70
2023/04/11 11:28:28;;;;;;;5.43;3.73;;;;;;;;;;5027282;28;20195;-70
2023/04/11 11:30:55;;;;;;;9.27;3.53;;;;;;;;;;5015799;28;20227;-70
2023/04/11 11:33:25;;;;;;;5.83;3.77;;;;;;;;;;5010228;28;20270;-69
2023/04/11 11:35:58;;;;;;;7.03;3.50;;;;;;;;;;5040909;28;20221;-69
2023/04/11 11:38:26;;;;;;;6.40;3.80;;;;;;;;;;5012194;28;20198;-70
2023/04/11 11:40:52;;;;;;;6.87;3.83;;;;;;;;;;5009943;28;20247;-69
2023/04/11 11:43:19;;;;;;;5.30;3.30;;;;;;;;;;5027873;28;20219;-73
2023/04/11 11:45:46;;;;;;;10.20;3.50;;;;;;;;;;5039600;28;20268;-70
2023/04/11 11:48:23;;;;;;;6.07;3.90;;;;;;;;;;5013917;28;20184;-69
2023/04/11 11:50:57;;;;;;;5.30;3.90;;;;;;;;;;5011530;28;20282;-70
2023/04/11 11:53:24;;;;;;;3.77;3.33;;;;;;;;;;5027721;28;20297;-68
2023/04/11 11:55:51;;;;;;;4.80;3.57;;;;;;;;;;5009333;28;20245;-70
2023/04/11 11:58:18;;;;;;;5.53;3.70;;;;;;;;;;5027214;28;20278;-70
2023/04/11 12:00:49;;;;;;;8.20;3.87;;;;;;;;;;5028509;28;20253;-69
2023/04/11 12:03:17;;;;;;;5.53;3.87;;;;;;;;;;5026997;28;20642;-69
2023/04/11 12:05:44;;;;;;;5.60;3.60;;;;;;;;;;5031292;28;20191;-70
2023/04/11 12:08:11;;;;;;;7.27;3.57;;;;;;;;;;5025664;28;20201;-70
2023/04/11 12:10:39;;;;;;;5.43;4.10;;;;;;;;;;5010200;28;20199;-70
2023/04/11 12:13:22;;;;;;;4.97;3.73;;;;;;;;;;5025291;28;20191;-70
2023/04/11 12:15:50;;;;;;;4.60;3.10;;;;;;;;;;5006830;28;20223;-70
2023/04/11 12:18:18;;;;;;;4.40;3.17;;;;;;;;;;5009459;28;20658;-70
2023/04/11 12:20:45;;;;;;;5.33;3.37;;;;;;;;;;5028289;28;20253;-71
2023/04/11 12:23:12;;;;;;;7.50;3.37;;;;;;;;;;5027771;28;20734;-69
2023/04/11 12:25:39;;;;;;;5.17;3.27;;;;;;;;;;5023114;28;20191;-72
2023/04/11 12:28:08;;;;;;;4.73;3.23;;;;;;;;;;5028970;28;20230;-73
2023/04/11 12:30:35;;;;;;;5.93;3.57;;;;;;;;;;5008678;28;20710;-71
2023/04/11 12:33:02;;;;;;;4.57;3.60;;;;;;;;;;5008974;28;20663;-74
2023/04/11 12:35:29;;;;;;;5.47;3.90;;;;;;;;;;5008702;28;20210;-73
2023/04/11 12:37:56;;;;;;;7.27;4.10;;;;;;;;;;5026617;28;20199;-70
2023/04/11 12:40:23;;;;;;;7.17;3.80;;;;;;;;;;5025890;28;20479;-70
2023/04/11 12:42:50;;;;;;;7.07;3.80;;;;;;;;;;5026661;28;20214;-72
2023/04/11 12:45:38;;;;;;;7.23;3.93;;;;;;;;;;5037270;28;20195;-70
2023/04/11 12:48:09;;;;;;;4.30;3.60;;;;;;;;;;5041695;28;20217;-71
2023/04/11 12:50:36;;;;;;;4.67;3.43;;;;;;;;;;4992892;28;20669;-71
2023/04/11 12:53:03;;;;;;;5.37;3.40;;;;;;;;;;5025453;28;20210;-72
2023/04/11 12:55:32;;;;;;;5.40;4.30;;;;;;;;;;5040274;28;20194;-70
2023/04/11 12:58:02;;;;;;;6.70;4.30;;;;;;;;;;5042942;28;20198;-69
2023/04/11 13:00:29;;;;;;;5.27;4.73;;;;;;;;;;5026213;28;20195;-69
2023/04/11 13:02:57;;;;;;;7.57;4.47;;;;;;;;;;5026717;28;20306;-73
2023/04/11 13:05:25;;;;;;;7.27;4.90;;;;;;;;;;5035037;28;20562;-69
2023/04/11 13:07:52;;;;;;;8.20;4.57;;;;;;;;;;5043612;28;20195;-70
2023/04/11 13:10:19;;;;;;;13.60;5.00;;;;;;;;;;5026613;28;20673;-69
2023/04/11 13:12:47;;;;;;;6.87;4.53;;;;;;;;;;5026460;28;20184;-71
2023/04/11 13:15:14;;;;;;;7.60;4.53;;;;;;;;;;5033787;28;20213;-71
2023/04/11 13:17:41;;;;;;;6.87;4.83;;;;;;;;;;5027758;28;20535;-70
2023/04/11 13:20:09;;;;;;;5.93;4.37;;;;;;;;;;5008882;28;20188;-69
2023/04/11 13:22:38;;;;;;;6.10;4.37;;;;;;;;;;5009440;28;20232;-70
2023/04/11 13:25:05;;;;;;;7.17;4.20;;;;;;;;;;5031561;28;20900;-69
2023/04/11 13:27:33;;;;;;;6.97;4.53;;;;;;;;;;5045896;28;20685;-71
2023/04/11 13:30:00;;;;;;;6.73;4.30;;;;;;;;;;5014537;28;20202;-69
2023/04/11 13:32:28;;;;;;;6.00;4.20;;;;;;;;;;5008924;28;20294;-71
2023/04/11 13:34:55;;;;;;;5.83;4.43;;;;;;;;;;5007978;28;20188;-69
2023/04/11 13:37:22;;;;;;;11.80;5.17;;;;;;;;;;5026339;28;20274;-70
2023/04/11 13:39:49;;;;;;;7.57;4.57;;;;;;;;;;5023470;28;20233;-69
2023/04/11 13:42:15;;;;;;;6.27;4.87;;;;;;;;;;5026338;28;20223;-70
2023/04/11 13:44:44;;;;;;;5.10;4.60;;;;;;;;;;5028932;28;20191;-70
2023/04/11 13:47:12;;;;;;;5.83;4.50;;;;;;;;;;5027809;28;20194;-71
2023/04/11 13:49:39;;;;;;;6.07;4.97;;;;;;;;;;5011301;28;20195;-71
2023/04/11 13:52:07;;;;;;;9.00;4.90;;;;;;;;;;5028159;28;20274;-70
2023/04/11 13:54:33;;;;;;;8.30;5.00;;;;;;;;;;5030676;28;20219;-70
2023/04/11 13:57:05;;;;;;;6.83;5.07;;;;;;;;;;5032308;28;20221;-69
2023/04/11 13:59:32;;;;;;;6.20;4.73;;;;;;;;;;5032845;28;20282;-72
2023/04/11 14:02:00;;;;;;;7.47;5.37;;;;;;;;;;5012030;28;20710;-71
2023/04/11 14:04:27;;;;;;;8.30;5.03;;;;;;;;;;5029207;28;20198;-72
2023/04/11 14:06:54;;;;;;;5.80;4.57;;;;;;;;;;5049174;28;20190;-69
2023/04/11 14:09:21;;;;;;;6.57;4.40;;;;;;;;;;5034984;28;20731;-70
2023/04/11 14:11:48;;;;;;;4.77;4.27;;;;;;;;;;5029467;28;20241;-70
2023/04/11 14:14:15;;;;;;;8.77;4.20;;;;;;;;;;5011667;28;20203;-71
2023/04/11 14:16:42;;;;;;;12.00;4.67;;;;;;;;;;5047510;28;20909;-72
2023/04/11 14:19:09;;;;;;;8.67;4.77;;;;;;;;;;5036146;28;20195;-71
2023/04/11 14:21:36;;;;;;;7.77;4.53;;;;;;;;;;5029151;28;21232;-71
2023/04/11 14:24:03;;;;;;;8.20;4.70;;;;;;;;;;5010118;28;20195;-71
2023/04/11 14:26:30;;;;;;;5.27;4.30;;;;;;;;;;5025689;28;20281;-71
2023/04/11 14:28:57;;;;;;;6.40;5.10;;;;;;;;;;5011369;28;20206;-71
2023/04/11 14:31:23;;;;;;;8.00;4.67;;;;;;;;;;5026951;28;20286;-69
2023/04/11 14:33:52;;;;;;;8.93;5.33;;;;;;;;;;5031067;28;20198;-70
2023/04/11 14:36:21;;;;;;;4.63;3.40;;;;;;;;;;5031665;28;20546;-69
2023/04/11 14:38:48;;;;;;;5.53;3.10;;;;;;;;;;5013642;28;20191;-70
2023/04/11 14:41:14;;;;;;;4.80;3.43;;;;;;;;;;5018323;28;20223;-69
2023/04/11 14:43:41;;;;;;;5.27;3.30;;;;;;;;;;5021369;28;20191;-69
2023/04/11 14:46:08;;;;;;;7.17;4.03;;;;;;;;;;5036797;28;20187;-70
2023/04/11 14:48:36;;;;;;;7.23;3.80;;;;;;;;;;5030797;28;20184;-70
2023/04/11 14:51:04;;;;;;;6.67;4.30;;;;;;;;;;5031550;28;20647;-69
2023/04/11 14:53:31;;;;;;;5.53;4.27;;;;;;;;;;5013728;28;20194;-70
2023/04/11 14:55:58;;;;;;;7.70;4.87;;;;;;;;;;5010838;28;20188;-70
2023/04/11 14:58:25;;;;;;;8.73;5.80;;;;;;;;;;5006861;28;20201;-70
2023/04/11 15:00:51;;;;;;;7.67;6.43;;;;;;;;;;5032552;28;20188;-70
2023/04/11 15:03:18;;;;;;;6.77;6.07;;;;;;;;;;5031941;28;20239;-69
2023/04/11 15:05:45;;;;;;;8.93;6.10;;;;;;;;;;5032108;28;20215;-69
2023/04/11 15:08:13;;;;;;;9.27;6.40;;;;;;;;;;5031937;28;20238;-69
2023/04/11 15:10:40;;;;;;;8.23;5.93;;;;;;;;;;5032084;28;20207;-69
2023/04/11 15:13:10;;;;;;;7.57;5.63;;;;;;;;;;5031949;28;20262;-70
2023/04/11 15:15:37;;;;;;;6.57;5.23;;;;;;;;;;5032334;28;20191;-69